sensor_id;sensor_type;location;lat;lon;timestamp;P1;durP1;ratioP1;P2;durP2;ratioP2
56045;SDS011;41913;51.030;3.706;2023-04-15T00:02:00;0.77;;;0.77;;
56045;SDS011;41913;51.030;3.706;2023-04-15T00:04:28;0.40;;;0.40;;
56045;SDS011;41913;51.030;3.706;2023-04-15T00:06:55;0.40;;;0.40;;
56045;SDS011;41913;51.030;3.706;2023-04-15T00:09:21;1.23;;;0.95;;
56045;SDS011;41913;51.030;3.706;2023-04-15T00:11:46;0.85;;;0.50;;
56045;SDS011;41913;51.030;3.706;2023-04-15T00:14:12;0.40;;;0.40;;
56045;SDS011;41913;51.030;3.706;2023-04-15T00:16:38;1.98;;;0.45;;
56045;SDS011;41913;51.030;3.706;2023-04-15T00:19:04;0.35;;;0.35;;
56045;SDS011;41913;51.030;3.706;2023-04-15T00:21:29;0.60;;;0.60;;
56045;SDS011;41913;51.030;3.706;2023-04-15T00:23:55;0.40;;;0.40;;
56045;SDS011;41913;51.030;3.706;2023-04-15T00:26:21;0.30;;;0.30;;
56045;SDS011;41913;51.030;3.706;2023-04-15T00:28:47;0.43;;;0.38;;
56045;SDS011;41913;51.030;3.706;2023-04-15T00:31:12;0.45;;;0.45;;
56045;SDS011;41913;51.030;3.706;2023-04-15T00:33:39;0.68;;;0.40;;
56045;SDS011;41913;51.030;3.706;2023-04-15T00:36:05;0.40;;;0.40;;
56045;SDS011;41913;51.030;3.706;2023-04-15T00:38:32;0.40;;;0.40;;
56045;SDS011;41913;51.030;3.706;2023-04-15T00:40:58;0.50;;;0.50;;
56045;SDS011;41913;51.030;3.706;2023-04-15T00:43:24;0.30;;;0.30;;
56045;SDS011;41913;51.030;3.706;2023-04-15T00:45:51;0.50;;;0.50;;
56045;SDS011;41913;51.030;3.706;2023-04-15T00:48:19;0.40;;;0.30;;
56045;SDS011;41913;51.030;3.706;2023-04-15T00:50:45;0.80;;;0.80;;
56045;SDS011;41913;51.030;3.706;2023-04-15T00:53:10;0.30;;;0.30;;
56045;SDS011;41913;51.030;3.706;2023-04-15T00:55:36;0.28;;;0.28;;
56045;SDS011;41913;51.030;3.706;2023-04-15T00:58:03;0.55;;;0.47;;
56045;SDS011;41913;51.030;3.706;2023-04-15T01:00:29;0.70;;;0.70;;
56045;SDS011;41913;51.030;3.706;2023-04-15T01:02:55;0.60;;;0.60;;
56045;SDS011;41913;51.030;3.706;2023-04-15T01:05:21;0.50;;;0.47;;
56045;SDS011;41913;51.030;3.706;2023-04-15T01:07:47;0.98;;;0.50;;
56045;SDS011;41913;51.030;3.706;2023-04-15T01:10:13;0.40;;;0.40;;
56045;SDS011;41913;51.030;3.706;2023-04-15T01:12:39;0.40;;;0.40;;
56045;SDS011;41913;51.030;3.706;2023-04-15T01:15:05;0.30;;;0.30;;
56045;SDS011;41913;51.030;3.706;2023-04-15T01:17:33;0.40;;;0.40;;
56045;SDS011;41913;51.030;3.706;2023-04-15T01:19:59;0.30;;;0.30;;
56045;SDS011;41913;51.030;3.706;2023-04-15T01:22:26;0.40;;;0.40;;
56045;SDS011;41913;51.030;3.706;2023-04-15T01:25:00;0.40;;;0.40;;
56045;SDS011;41913;51.030;3.706;2023-04-15T01:27:32;0.55;;;0.50;;
56045;SDS011;41913;51.030;3.706;2023-04-15T01:29:59;0.40;;;0.40;;
56045;SDS011;41913;51.030;3.706;2023-04-15T01:32:27;0.30;;;0.30;;
56045;SDS011;41913;51.030;3.706;2023-04-15T01:34:53;0.88;;;0.65;;
56045;SDS011;41913;51.030;3.706;2023-04-15T01:37:18;0.35;;;0.35;;
56045;SDS011;41913;51.030;3.706;2023-04-15T01:39:44;0.30;;;0.30;;
56045;SDS011;41913;51.030;3.706;2023-04-15T01:42:10;0.30;;;0.30;;
56045;SDS011;41913;51.030;3.706;2023-04-15T01:44:36;0.40;;;0.40;;
56045;SDS011;41913;51.030;3.706;2023-04-15T01:47:02;0.22;;;0.22;;
56045;SDS011;41913;51.030;3.706;2023-04-15T01:49:29;0.25;;;0.25;;
56045;SDS011;41913;51.030;3.706;2023-04-15T01:51:55;0.45;;;0.45;;
56045;SDS011;41913;51.030;3.706;2023-04-15T01:54:20;0.40;;;0.40;;
56045;SDS011;41913;51.030;3.706;2023-04-15T01:56:46;0.45;;;0.45;;
56045;SDS011;41913;51.030;3.706;2023-04-15T01:59:12;0.43;;;0.43;;
56045;SDS011;41913;51.030;3.706;2023-04-15T02:01:39;0.30;;;0.30;;
56045;SDS011;41913;51.030;3.706;2023-04-15T02:04:05;0.30;;;0.30;;
56045;SDS011;41913;51.030;3.706;2023-04-15T02:06:31;0.38;;;0.38;;
56045;SDS011;41913;51.030;3.706;2023-04-15T02:08:57;0.50;;;0.50;;
56045;SDS011;41913;51.030;3.706;2023-04-15T02:11:23;0.50;;;0.50;;
56045;SDS011;41913;51.030;3.706;2023-04-15T02:13:48;0.45;;;0.45;;
56045;SDS011;41913;51.030;3.706;2023-04-15T02:16:15;0.40;;;0.40;;
56045;SDS011;41913;51.030;3.706;2023-04-15T02:18:43;0.60;;;0.60;;
56045;SDS011;41913;51.030;3.706;2023-04-15T02:21:09;0.40;;;0.40;;
56045;SDS011;41913;51.030;3.706;2023-04-15T02:23:35;0.40;;;0.40;;
56045;SDS011;41913;51.030;3.706;2023-04-15T02:26:01;0.43;;;0.43;;
56045;SDS011;41913;51.030;3.706;2023-04-15T02:28:26;0.45;;;0.45;;
56045;SDS011;41913;51.030;3.706;2023-04-15T02:30:52;0.22;;;0.22;;
56045;SDS011;41913;51.030;3.706;2023-04-15T02:33:20;0.40;;;0.40;;
56045;SDS011;41913;51.030;3.706;2023-04-15T02:35:45;0.88;;;0.40;;
56045;SDS011;41913;51.030;3.706;2023-04-15T02:38:11;0.30;;;0.30;;
56045;SDS011;41913;51.030;3.706;2023-04-15T02:40:38;0.30;;;0.30;;
56045;SDS011;41913;51.030;3.706;2023-04-15T02:43:04;0.60;;;0.60;;
56045;SDS011;41913;51.030;3.706;2023-04-15T02:45:31;0.47;;;0.47;;
56045;SDS011;41913;51.030;3.706;2023-04-15T02:47:57;0.63;;;0.40;;
56045;SDS011;41913;51.030;3.706;2023-04-15T02:50:22;0.55;;;0.55;;
56045;SDS011;41913;51.030;3.706;2023-04-15T02:52:49;0.47;;;0.47;;
56045;SDS011;41913;51.030;3.706;2023-04-15T02:55:16;0.50;;;0.50;;
56045;SDS011;41913;51.030;3.706;2023-04-15T02:57:42;0.38;;;0.38;;
56045;SDS011;41913;51.030;3.706;2023-04-15T03:00:08;0.40;;;0.40;;
56045;SDS011;41913;51.030;3.706;2023-04-15T03:02:36;0.73;;;0.73;;
56045;SDS011;41913;51.030;3.706;2023-04-15T03:05:03;0.40;;;0.40;;
56045;SDS011;41913;51.030;3.706;2023-04-15T03:07:31;0.38;;;0.38;;
56045;SDS011;41913;51.030;3.706;2023-04-15T03:09:56;0.40;;;0.40;;
56045;SDS011;41913;51.030;3.706;2023-04-15T03:12:22;0.73;;;0.73;;
56045;SDS011;41913;51.030;3.706;2023-04-15T03:14:48;0.35;;;0.35;;
56045;SDS011;41913;51.030;3.706;2023-04-15T03:17:13;0.50;;;0.50;;
56045;SDS011;41913;51.030;3.706;2023-04-15T03:19:39;0.50;;;0.50;;
56045;SDS011;41913;51.030;3.706;2023-04-15T03:22:05;0.40;;;0.40;;
56045;SDS011;41913;51.030;3.706;2023-04-15T03:24:30;0.40;;;0.40;;
56045;SDS011;41913;51.030;3.706;2023-04-15T03:26:56;0.30;;;0.30;;
56045;SDS011;41913;51.030;3.706;2023-04-15T03:29:22;0.63;;;0.63;;
56045;SDS011;41913;51.030;3.706;2023-04-15T03:31:48;0.43;;;0.43;;
56045;SDS011;41913;51.030;3.706;2023-04-15T03:34:14;0.43;;;0.43;;
56045;SDS011;41913;51.030;3.706;2023-04-15T03:36:39;0.60;;;0.60;;
56045;SDS011;41913;51.030;3.706;2023-04-15T03:39:05;0.32;;;0.20;;
56045;SDS011;41913;51.030;3.706;2023-04-15T03:41:31;0.40;;;0.40;;
56045;SDS011;41913;51.030;3.706;2023-04-15T03:43:57;0.30;;;0.30;;
56045;SDS011;41913;51.030;3.706;2023-04-15T03:46:22;0.47;;;0.47;;
56045;SDS011;41913;51.030;3.706;2023-04-15T03:48:48;1.00;;;0.50;;
56045;SDS011;41913;51.030;3.706;2023-04-15T03:51:13;0.50;;;0.50;;
56045;SDS011;41913;51.030;3.706;2023-04-15T03:53:39;0.50;;;0.50;;
56045;SDS011;41913;51.030;3.706;2023-04-15T03:56:05;0.40;;;0.40;;
56045;SDS011;41913;51.030;3.706;2023-04-15T03:58:30;0.30;;;0.30;;
56045;SDS011;41913;51.030;3.706;2023-04-15T04:00:56;0.55;;;0.55;;
56045;SDS011;41913;51.030;3.706;2023-04-15T04:03:22;0.40;;;0.40;;
56045;SDS011;41913;51.030;3.706;2023-04-15T04:05:47;1.30;;;0.40;;
56045;SDS011;41913;51.030;3.706;2023-04-15T04:08:13;0.50;;;0.50;;
56045;SDS011;41913;51.030;3.706;2023-04-15T04:10:40;0.30;;;0.30;;
56045;SDS011;41913;51.030;3.706;2023-04-15T04:13:06;0.50;;;0.50;;
56045;SDS011;41913;51.030;3.706;2023-04-15T04:15:32;0.40;;;0.40;;
56045;SDS011;41913;51.030;3.706;2023-04-15T04:17:57;0.45;;;0.40;;
56045;SDS011;41913;51.030;3.706;2023-04-15T04:20:24;0.50;;;0.50;;
56045;SDS011;41913;51.030;3.706;2023-04-15T04:22:50;0.50;;;0.50;;
56045;SDS011;41913;51.030;3.706;2023-04-15T04:25:15;0.70;;;0.70;;
56045;SDS011;41913;51.030;3.706;2023-04-15T04:27:41;0.70;;;0.70;;
56045;SDS011;41913;51.030;3.706;2023-04-15T04:30:07;1.13;;;0.75;;
56045;SDS011;41913;51.030;3.706;2023-04-15T04:32:33;0.63;;;0.63;;
56045;SDS011;41913;51.030;3.706;2023-04-15T04:34:59;0.60;;;0.60;;
56045;SDS011;41913;51.030;3.706;2023-04-15T04:37:24;0.50;;;0.50;;
56045;SDS011;41913;51.030;3.706;2023-04-15T04:39:50;0.57;;;0.57;;
56045;SDS011;41913;51.030;3.706;2023-04-15T04:42:16;0.57;;;0.57;;
56045;SDS011;41913;51.030;3.706;2023-04-15T04:44:41;0.47;;;0.47;;
56045;SDS011;41913;51.030;3.706;2023-04-15T04:47:09;0.70;;;0.70;;
56045;SDS011;41913;51.030;3.706;2023-04-15T04:49:35;0.50;;;0.50;;
56045;SDS011;41913;51.030;3.706;2023-04-15T04:52:01;0.38;;;0.38;;
56045;SDS011;41913;51.030;3.706;2023-04-15T04:54:26;0.60;;;0.60;;
56045;SDS011;41913;51.030;3.706;2023-04-15T04:56:52;0.55;;;0.55;;
56045;SDS011;41913;51.030;3.706;2023-04-15T04:59:17;2.38;;;0.70;;
56045;SDS011;41913;51.030;3.706;2023-04-15T05:01:43;0.52;;;0.52;;
56045;SDS011;41913;51.030;3.706;2023-04-15T05:04:09;0.65;;;0.65;;
56045;SDS011;41913;51.030;3.706;2023-04-15T05:06:35;0.55;;;0.55;;
56045;SDS011;41913;51.030;3.706;2023-04-15T05:09:00;0.65;;;0.65;;
56045;SDS011;41913;51.030;3.706;2023-04-15T05:11:27;0.77;;;0.77;;
56045;SDS011;41913;51.030;3.706;2023-04-15T05:13:53;0.70;;;0.70;;
56045;SDS011;41913;51.030;3.706;2023-04-15T05:16:19;0.47;;;0.47;;
56045;SDS011;41913;51.030;3.706;2023-04-15T05:18:45;1.00;;;0.55;;
56045;SDS011;41913;51.030;3.706;2023-04-15T05:21:11;0.47;;;0.47;;
56045;SDS011;41913;51.030;3.706;2023-04-15T05:23:37;0.60;;;0.60;;
56045;SDS011;41913;51.030;3.706;2023-04-15T05:26:02;0.40;;;0.40;;
56045;SDS011;41913;51.030;3.706;2023-04-15T05:28:28;0.68;;;0.65;;
56045;SDS011;41913;51.030;3.706;2023-04-15T05:30:54;0.60;;;0.60;;
56045;SDS011;41913;51.030;3.706;2023-04-15T05:33:20;0.52;;;0.52;;
56045;SDS011;41913;51.030;3.706;2023-04-15T05:35:46;0.82;;;0.82;;
56045;SDS011;41913;51.030;3.706;2023-04-15T05:38:11;0.38;;;0.38;;
56045;SDS011;41913;51.030;3.706;2023-04-15T05:40:37;0.40;;;0.40;;
56045;SDS011;41913;51.030;3.706;2023-04-15T05:43:02;3.22;;;0.60;;
56045;SDS011;41913;51.030;3.706;2023-04-15T05:45:28;7.68;;;0.88;;
56045;SDS011;41913;51.030;3.706;2023-04-15T05:47:55;43.42;;;5.72;;
56045;SDS011;41913;51.030;3.706;2023-04-15T05:50:20;16.10;;;2.75;;
56045;SDS011;41913;51.030;3.706;2023-04-15T05:52:47;14.07;;;2.13;;
56045;SDS011;41913;51.030;3.706;2023-04-15T05:55:13;2.05;;;0.70;;
56045;SDS011;41913;51.030;3.706;2023-04-15T05:57:38;3.13;;;1.27;;
56045;SDS011;41913;51.030;3.706;2023-04-15T06:00:04;2.17;;;1.00;;
56045;SDS011;41913;51.030;3.706;2023-04-15T06:02:31;5.03;;;0.98;;
56045;SDS011;41913;51.030;3.706;2023-04-15T06:04:57;2.42;;;0.73;;
56045;SDS011;41913;51.030;3.706;2023-04-15T06:07:23;12.70;;;1.20;;
56045;SDS011;41913;51.030;3.706;2023-04-15T06:09:48;4.78;;;0.90;;
56045;SDS011;41913;51.030;3.706;2023-04-15T06:12:14;5.47;;;1.02;;
56045;SDS011;41913;51.030;3.706;2023-04-15T06:14:41;1.77;;;0.85;;
56045;SDS011;41913;51.030;3.706;2023-04-15T06:17:07;0.70;;;0.65;;
56045;SDS011;41913;51.030;3.706;2023-04-15T06:19:33;0.60;;;0.55;;
56045;SDS011;41913;51.030;3.706;2023-04-15T06:22:00;3.65;;;0.85;;
56045;SDS011;41913;51.030;3.706;2023-04-15T06:24:26;6.18;;;1.60;;
56045;SDS011;41913;51.030;3.706;2023-04-15T06:26:52;3.03;;;0.98;;
56045;SDS011;41913;51.030;3.706;2023-04-15T06:29:18;7.15;;;1.33;;
56045;SDS011;41913;51.030;3.706;2023-04-15T06:31:45;4.20;;;1.00;;
56045;SDS011;41913;51.030;3.706;2023-04-15T06:34:11;4.75;;;1.13;;
56045;SDS011;41913;51.030;3.706;2023-04-15T06:36:38;6.60;;;2.13;;
56045;SDS011;41913;51.030;3.706;2023-04-15T06:39:04;2.60;;;1.58;;
56045;SDS011;41913;51.030;3.706;2023-04-15T06:41:30;3.75;;;1.80;;
56045;SDS011;41913;51.030;3.706;2023-04-15T06:43:55;3.08;;;1.70;;
56045;SDS011;41913;51.030;3.706;2023-04-15T06:46:21;9.45;;;1.83;;
56045;SDS011;41913;51.030;3.706;2023-04-15T06:48:48;7.93;;;1.77;;
56045;SDS011;41913;51.030;3.706;2023-04-15T06:51:13;9.70;;;2.17;;
56045;SDS011;41913;51.030;3.706;2023-04-15T06:53:39;11.73;;;2.00;;
56045;SDS011;41913;51.030;3.706;2023-04-15T06:56:07;7.78;;;2.30;;
56045;SDS011;41913;51.030;3.706;2023-04-15T06:58:33;5.78;;;2.42;;
56045;SDS011;41913;51.030;3.706;2023-04-15T07:00:59;12.93;;;2.67;;
56045;SDS011;41913;51.030;3.706;2023-04-15T07:03:24;5.32;;;1.75;;
56045;SDS011;41913;51.030;3.706;2023-04-15T07:05:51;6.40;;;2.40;;
56045;SDS011;41913;51.030;3.706;2023-04-15T07:08:17;4.03;;;2.33;;
56045;SDS011;41913;51.030;3.706;2023-04-15T07:10:43;6.88;;;2.42;;
56045;SDS011;41913;51.030;3.706;2023-04-15T07:13:10;5.82;;;2.10;;
56045;SDS011;41913;51.030;3.706;2023-04-15T07:15:36;13.65;;;2.20;;
56045;SDS011;41913;51.030;3.706;2023-04-15T07:18:02;7.43;;;2.90;;
56045;SDS011;41913;51.030;3.706;2023-04-15T07:20:27;7.68;;;2.92;;
56045;SDS011;41913;51.030;3.706;2023-04-15T07:22:53;4.97;;;2.17;;
56045;SDS011;41913;51.030;3.706;2023-04-15T07:25:19;6.55;;;2.53;;
56045;SDS011;41913;51.030;3.706;2023-04-15T07:27:44;7.05;;;2.75;;
56045;SDS011;41913;51.030;3.706;2023-04-15T07:30:10;3.30;;;2.65;;
56045;SDS011;41913;51.030;3.706;2023-04-15T07:32:36;5.82;;;2.72;;
56045;SDS011;41913;51.030;3.706;2023-04-15T07:35:02;13.68;;;3.17;;
56045;SDS011;41913;51.030;3.706;2023-04-15T07:37:28;15.57;;;2.88;;
56045;SDS011;41913;51.030;3.706;2023-04-15T07:39:54;16.92;;;3.90;;
56045;SDS011;41913;51.030;3.706;2023-04-15T07:42:20;13.35;;;3.25;;
56045;SDS011;41913;51.030;3.706;2023-04-15T07:44:46;9.27;;;3.08;;
56045;SDS011;41913;51.030;3.706;2023-04-15T07:47:12;10.93;;;4.32;;
56045;SDS011;41913;51.030;3.706;2023-04-15T07:49:38;7.35;;;2.65;;
56045;SDS011;41913;51.030;3.706;2023-04-15T07:52:03;9.02;;;2.83;;
56045;SDS011;41913;51.030;3.706;2023-04-15T07:54:29;13.07;;;4.10;;
56045;SDS011;41913;51.030;3.706;2023-04-15T07:56:56;14.60;;;3.33;;
56045;SDS011;41913;51.030;3.706;2023-04-15T07:59:23;5.65;;;2.80;;
56045;SDS011;41913;51.030;3.706;2023-04-15T08:01:48;8.68;;;2.75;;
56045;SDS011;41913;51.030;3.706;2023-04-15T08:04:14;5.13;;;2.78;;
56045;SDS011;41913;51.030;3.706;2023-04-15T08:06:40;13.10;;;4.07;;
56045;SDS011;41913;51.030;3.706;2023-04-15T08:09:05;19.65;;;5.75;;
56045;SDS011;41913;51.030;3.706;2023-04-15T08:11:32;20.92;;;4.00;;
56045;SDS011;41913;51.030;3.706;2023-04-15T08:13:57;25.73;;;4.63;;
56045;SDS011;41913;51.030;3.706;2023-04-15T08:16:24;26.00;;;3.85;;
56045;SDS011;41913;51.030;3.706;2023-04-15T08:18:53;31.35;;;5.03;;
56045;SDS011;41913;51.030;3.706;2023-04-15T08:21:20;13.70;;;4.38;;
56045;SDS011;41913;51.030;3.706;2023-04-15T08:23:47;13.40;;;3.83;;
56045;SDS011;41913;51.030;3.706;2023-04-15T08:26:16;27.15;;;4.80;;
56045;SDS011;41913;51.030;3.706;2023-04-15T08:28:43;19.05;;;5.47;;
56045;SDS011;41913;51.030;3.706;2023-04-15T08:31:10;19.80;;;5.05;;
56045;SDS011;41913;51.030;3.706;2023-04-15T08:33:38;18.40;;;4.90;;
56045;SDS011;41913;51.030;3.706;2023-04-15T08:36:03;19.98;;;5.65;;
56045;SDS011;41913;51.030;3.706;2023-04-15T08:38:30;23.27;;;6.90;;
56045;SDS011;41913;51.030;3.706;2023-04-15T08:40:56;15.32;;;5.93;;
56045;SDS011;41913;51.030;3.706;2023-04-15T08:43:26;32.50;;;7.82;;
56045;SDS011;41913;51.030;3.706;2023-04-15T08:45:54;21.60;;;6.15;;
56045;SDS011;41913;51.030;3.706;2023-04-15T08:48:23;17.58;;;6.20;;
56045;SDS011;41913;51.030;3.706;2023-04-15T08:50:52;28.08;;;7.03;;
56045;SDS011;41913;51.030;3.706;2023-04-15T08:53:18;27.45;;;6.90;;
56045;SDS011;41913;51.030;3.706;2023-04-15T08:55:44;20.95;;;5.72;;
56045;SDS011;41913;51.030;3.706;2023-04-15T08:58:11;19.40;;;6.20;;
56045;SDS011;41913;51.030;3.706;2023-04-15T09:00:38;24.20;;;6.20;;
56045;SDS011;41913;51.030;3.706;2023-04-15T09:03:04;20.27;;;6.03;;
56045;SDS011;41913;51.030;3.706;2023-04-15T09:05:32;21.15;;;5.40;;
56045;SDS011;41913;51.030;3.706;2023-04-15T09:07:58;15.98;;;5.60;;
56045;SDS011;41913;51.030;3.706;2023-04-15T09:10:24;19.77;;;4.63;;
56045;SDS011;41913;51.030;3.706;2023-04-15T09:12:51;13.55;;;5.03;;
56045;SDS011;41913;51.030;3.706;2023-04-15T09:15:17;14.15;;;4.35;;
56045;SDS011;41913;51.030;3.706;2023-04-15T09:17:43;16.95;;;5.28;;
56045;SDS011;41913;51.030;3.706;2023-04-15T09:20:10;20.30;;;5.18;;
56045;SDS011;41913;51.030;3.706;2023-04-15T09:22:38;17.05;;;4.88;;
56045;SDS011;41913;51.030;3.706;2023-04-15T09:27:52;16.15;;;5.40;;
56045;SDS011;41913;51.030;3.706;2023-04-15T09:30:23;13.85;;;5.13;;
56045;SDS011;41913;51.030;3.706;2023-04-15T09:32:53;11.35;;;5.57;;
56045;SDS011;41913;51.030;3.706;2023-04-15T09:35:21;18.42;;;5.35;;
56045;SDS011;41913;51.030;3.706;2023-04-15T09:37:48;14.30;;;5.72;;
56045;SDS011;41913;51.030;3.706;2023-04-15T09:40:37;15.43;;;5.57;;
56045;SDS011;41913;51.030;3.706;2023-04-15T09:43:03;13.70;;;5.50;;
56045;SDS011;41913;51.030;3.706;2023-04-15T09:45:30;17.77;;;5.93;;
56045;SDS011;41913;51.030;3.706;2023-04-15T09:47:57;13.73;;;5.57;;
56045;SDS011;41913;51.030;3.706;2023-04-15T09:50:39;26.33;;;6.00;;
56045;SDS011;41913;51.030;3.706;2023-04-15T09:53:08;11.73;;;5.65;;
56045;SDS011;41913;51.030;3.706;2023-04-15T09:55:43;11.30;;;5.28;;
56045;SDS011;41913;51.030;3.706;2023-04-15T09:58:21;10.75;;;4.60;;
56045;SDS011;41913;51.030;3.706;2023-04-15T10:00:48;15.35;;;5.13;;
56045;SDS011;41913;51.030;3.706;2023-04-15T10:03:18;9.13;;;5.07;;
56045;SDS011;41913;51.030;3.706;2023-04-15T10:05:45;13.45;;;5.32;;
56045;SDS011;41913;51.030;3.706;2023-04-15T10:08:13;15.63;;;6.07;;
56045;SDS011;41913;51.030;3.706;2023-04-15T10:10:41;10.70;;;5.53;;
56045;SDS011;41913;51.030;3.706;2023-04-15T10:13:07;12.32;;;5.60;;
56045;SDS011;41913;51.030;3.706;2023-04-15T10:15:33;13.82;;;5.35;;
56045;SDS011;41913;51.030;3.706;2023-04-15T10:17:59;10.48;;;4.97;;
56045;SDS011;41913;51.030;3.706;2023-04-15T10:20:26;10.10;;;4.93;;
56045;SDS011;41913;51.030;3.706;2023-04-15T10:22:53;9.60;;;5.25;;
56045;SDS011;41913;51.030;3.706;2023-04-15T10:25:20;16.38;;;5.15;;
56045;SDS011;41913;51.030;3.706;2023-04-15T10:27:46;9.27;;;4.95;;
56045;SDS011;41913;51.030;3.706;2023-04-15T10:30:12;10.60;;;4.88;;
56045;SDS011;41913;51.030;3.706;2023-04-15T10:32:39;7.20;;;4.65;;
56045;SDS011;41913;51.030;3.706;2023-04-15T10:35:05;8.50;;;4.22;;
56045;SDS011;41913;51.030;3.706;2023-04-15T10:37:36;11.88;;;5.13;;
56045;SDS011;41913;51.030;3.706;2023-04-15T10:42:54;7.47;;;4.60;;
56045;SDS011;41913;51.030;3.706;2023-04-15T10:45:21;12.70;;;4.68;;
56045;SDS011;41913;51.030;3.706;2023-04-15T10:47:54;11.52;;;4.60;;
56045;SDS011;41913;51.030;3.706;2023-04-15T10:50:21;9.68;;;3.88;;
56045;SDS011;41913;51.030;3.706;2023-04-15T10:52:50;7.60;;;5.07;;
56045;SDS011;41913;51.030;3.706;2023-04-15T10:55:20;10.80;;;4.90;;
56045;SDS011;41913;51.030;3.706;2023-04-15T10:57:51;13.13;;;4.32;;
56045;SDS011;41913;51.030;3.706;2023-04-15T11:00:27;13.10;;;4.55;;
56045;SDS011;41913;51.030;3.706;2023-04-15T11:03:04;6.18;;;4.30;;
56045;SDS011;41913;51.030;3.706;2023-04-15T11:08:06;7.93;;;4.38;;
56045;SDS011;41913;51.030;3.706;2023-04-15T11:15:31;4.78;;;3.22;;
56045;SDS011;41913;51.030;3.706;2023-04-15T11:17:59;10.88;;;3.67;;
56045;SDS011;41913;51.030;3.706;2023-04-15T11:20:33;7.53;;;3.50;;
56045;SDS011;41913;51.030;3.706;2023-04-15T11:22:59;4.38;;;3.22;;
56045;SDS011;41913;51.030;3.706;2023-04-15T11:25:25;7.13;;;3.85;;
56045;SDS011;41913;51.030;3.706;2023-04-15T11:27:57;5.95;;;3.97;;
56045;SDS011;41913;51.030;3.706;2023-04-15T11:30:25;4.82;;;3.40;;
56045;SDS011;41913;51.030;3.706;2023-04-15T11:32:53;3.60;;;3.17;;
56045;SDS011;41913;51.030;3.706;2023-04-15T11:35:22;5.03;;;3.50;;
56045;SDS011;41913;51.030;3.706;2023-04-15T11:37:48;4.40;;;3.05;;
56045;SDS011;41913;51.030;3.706;2023-04-15T11:40:14;7.72;;;3.53;;
56045;SDS011;41913;51.030;3.706;2023-04-15T11:42:42;5.80;;;3.60;;
56045;SDS011;41913;51.030;3.706;2023-04-15T11:45:09;3.70;;;2.95;;
56045;SDS011;41913;51.030;3.706;2023-04-15T11:47:36;4.82;;;3.45;;
56045;SDS011;41913;51.030;3.706;2023-04-15T11:50:12;3.65;;;3.13;;
56045;SDS011;41913;51.030;3.706;2023-04-15T11:52:38;5.25;;;3.40;;
56045;SDS011;41913;51.030;3.706;2023-04-15T11:55:05;3.42;;;3.00;;
56045;SDS011;41913;51.030;3.706;2023-04-15T11:57:33;6.43;;;2.88;;
56045;SDS011;41913;51.030;3.706;2023-04-15T12:00:00;4.22;;;3.05;;
56045;SDS011;41913;51.030;3.706;2023-04-15T12:02:35;6.32;;;3.38;;
56045;SDS011;41913;51.030;3.706;2023-04-15T12:05:01;3.53;;;2.63;;
56045;SDS011;41913;51.030;3.706;2023-04-15T12:07:29;3.28;;;2.97;;
56045;SDS011;41913;51.030;3.706;2023-04-15T12:09:54;6.80;;;3.28;;
56045;SDS011;41913;51.030;3.706;2023-04-15T12:12:21;2.90;;;2.63;;
56045;SDS011;41913;51.030;3.706;2023-04-15T12:14:51;4.32;;;3.03;;
56045;SDS011;41913;51.030;3.706;2023-04-15T12:17:16;3.42;;;3.03;;
56045;SDS011;41913;51.030;3.706;2023-04-15T12:19:42;3.20;;;2.70;;
56045;SDS011;41913;51.030;3.706;2023-04-15T12:22:13;3.40;;;2.40;;
56045;SDS011;41913;51.030;3.706;2023-04-15T12:24:40;6.63;;;2.85;;
56045;SDS011;41913;51.030;3.706;2023-04-15T12:27:11;2.13;;;1.80;;
56045;SDS011;41913;51.030;3.706;2023-04-15T12:29:38;2.58;;;2.38;;
56045;SDS011;41913;51.030;3.706;2023-04-15T12:32:14;3.28;;;2.05;;
56045;SDS011;41913;51.030;3.706;2023-04-15T12:34:45;2.60;;;2.33;;
56045;SDS011;41913;51.030;3.706;2023-04-15T12:37:14;6.05;;;2.25;;
56045;SDS011;41913;51.030;3.706;2023-04-15T12:39:41;3.45;;;2.60;;
56045;SDS011;41913;51.030;3.706;2023-04-15T12:42:08;5.07;;;2.55;;
56045;SDS011;41913;51.030;3.706;2023-04-15T12:44:35;7.18;;;2.50;;
56045;SDS011;41913;51.030;3.706;2023-04-15T12:47:01;2.25;;;1.80;;
56045;SDS011;41913;51.030;3.706;2023-04-15T12:49:28;3.33;;;2.17;;
56045;SDS011;41913;51.030;3.706;2023-04-15T12:51:57;2.20;;;1.92;;
56045;SDS011;41913;51.030;3.706;2023-04-15T12:54:26;8.35;;;1.92;;
56045;SDS011;41913;51.030;3.706;2023-04-15T12:56:53;2.10;;;1.80;;
56045;SDS011;41913;51.030;3.706;2023-04-15T12:59:20;2.35;;;2.15;;
56045;SDS011;41913;51.030;3.706;2023-04-15T13:01:48;2.58;;;1.95;;
56045;SDS011;41913;51.030;3.706;2023-04-15T13:04:14;1.48;;;1.48;;
56045;SDS011;41913;51.030;3.706;2023-04-15T13:06:40;2.17;;;2.00;;
56045;SDS011;41913;51.030;3.706;2023-04-15T13:09:06;5.10;;;2.30;;
56045;SDS011;41913;51.030;3.706;2023-04-15T13:11:31;5.22;;;2.10;;
56045;SDS011;41913;51.030;3.706;2023-04-15T13:14:00;2.25;;;1.65;;
56045;SDS011;41913;51.030;3.706;2023-04-15T13:16:31;10.00;;;2.60;;
56045;SDS011;41913;51.030;3.706;2023-04-15T13:19:00;2.38;;;2.03;;
56045;SDS011;41913;51.030;3.706;2023-04-15T13:21:26;3.50;;;1.85;;
56045;SDS011;41913;51.030;3.706;2023-04-15T13:23:52;3.13;;;1.65;;
56045;SDS011;41913;51.030;3.706;2023-04-15T13:26:18;2.40;;;1.80;;
56045;SDS011;41913;51.030;3.706;2023-04-15T13:28:44;2.38;;;2.00;;
56045;SDS011;41913;51.030;3.706;2023-04-15T13:31:11;4.45;;;2.05;;
56045;SDS011;41913;51.030;3.706;2023-04-15T13:33:38;2.08;;;1.98;;
56045;SDS011;41913;51.030;3.706;2023-04-15T13:36:03;4.00;;;1.48;;
56045;SDS011;41913;51.030;3.706;2023-04-15T13:38:29;1.77;;;1.67;;
56045;SDS011;41913;51.030;3.706;2023-04-15T13:40:55;1.55;;;1.45;;
56045;SDS011;41913;51.030;3.706;2023-04-15T13:43:21;2.90;;;1.30;;
56045;SDS011;41913;51.030;3.706;2023-04-15T13:45:47;2.35;;;1.20;;
56045;SDS011;41913;51.030;3.706;2023-04-15T13:48:14;3.17;;;1.67;;
56045;SDS011;41913;51.030;3.706;2023-04-15T13:50:39;1.08;;;1.08;;
56045;SDS011;41913;51.030;3.706;2023-04-15T13:53:09;1.45;;;1.30;;
56045;SDS011;41913;51.030;3.706;2023-04-15T13:55:35;1.08;;;1.08;;
56045;SDS011;41913;51.030;3.706;2023-04-15T13:58:05;1.48;;;1.17;;
56045;SDS011;41913;51.030;3.706;2023-04-15T14:00:31;1.83;;;1.25;;
56045;SDS011;41913;51.030;3.706;2023-04-15T14:02:57;5.30;;;1.20;;
56045;SDS011;41913;51.030;3.706;2023-04-15T14:05:22;1.27;;;1.27;;
56045;SDS011;41913;51.030;3.706;2023-04-15T14:07:48;1.35;;;1.30;;
56045;SDS011;41913;51.030;3.706;2023-04-15T14:10:14;2.85;;;0.98;;
56045;SDS011;41913;51.030;3.706;2023-04-15T14:12:41;1.08;;;1.08;;
56045;SDS011;41913;51.030;3.706;2023-04-15T14:15:07;2.00;;;1.00;;
56045;SDS011;41913;51.030;3.706;2023-04-15T14:17:33;1.35;;;1.13;;
56045;SDS011;41913;51.030;3.706;2023-04-15T14:19:59;2.28;;;1.33;;
56045;SDS011;41913;51.030;3.706;2023-04-15T14:22:25;1.45;;;1.35;;
56045;SDS011;41913;51.030;3.706;2023-04-15T14:24:50;1.40;;;1.02;;
56045;SDS011;41913;51.030;3.706;2023-04-15T14:27:19;1.70;;;1.60;;
56045;SDS011;41913;51.030;3.706;2023-04-15T14:29:45;1.85;;;1.30;;
56045;SDS011;41913;51.030;3.706;2023-04-15T14:32:11;1.20;;;1.20;;
56045;SDS011;41913;51.030;3.706;2023-04-15T14:34:37;1.33;;;1.30;;
56045;SDS011;41913;51.030;3.706;2023-04-15T14:37:02;0.98;;;0.98;;
56045;SDS011;41913;51.030;3.706;2023-04-15T14:39:29;1.60;;;1.50;;
56045;SDS011;41913;51.030;3.706;2023-04-15T14:41:55;3.42;;;1.17;;
56045;SDS011;41913;51.030;3.706;2023-04-15T14:44:20;1.77;;;1.67;;
56045;SDS011;41913;51.030;3.706;2023-04-15T14:46:46;1.38;;;1.27;;
56045;SDS011;41913;51.030;3.706;2023-04-15T14:49:12;5.00;;;1.15;;
56045;SDS011;41913;51.030;3.706;2023-04-15T14:51:38;1.10;;;1.05;;
56045;SDS011;41913;51.030;3.706;2023-04-15T14:54:04;3.33;;;1.33;;
56045;SDS011;41913;51.030;3.706;2023-04-15T14:56:29;1.48;;;1.02;;